createdAt,value
2022-08-28T00:00:01.064Z,89.73
2022-08-28T00:01:01.061Z,89.83
2022-08-28T00:02:01.030Z,89.83
2022-08-28T00:03:01.049Z,89.94
2022-08-28T00:04:01.014Z,90.08
2022-08-28T00:05:01.118Z,90.18
2022-08-28T00:06:01.023Z,90.08
2022-08-28T00:07:01.009Z,90.18
2022-08-28T00:08:00.972Z,90.28
2022-08-28T00:09:00.944Z,90.48
2022-08-28T00:10:00.934Z,90.38
2022-08-28T00:11:00.929Z,90.38
2022-08-28T00:12:00.899Z,90.38
2022-08-28T00:13:00.890Z,90.38
2022-08-28T00:14:00.869Z,90.48
2022-08-28T00:15:00.876Z,90.48
2022-08-28T00:16:01.038Z,90.38
2022-08-28T00:17:00.839Z,90.38
2022-08-28T00:18:00.828Z,90.48
2022-08-28T00:19:00.871Z,90.58
2022-08-28T00:20:00.801Z,90.58
2022-08-28T00:21:00.798Z,90.58
2022-08-28T00:22:00.770Z,90.58
2022-08-28T00:23:00.777Z,90.79
2022-08-28T00:24:00.729Z,90.73
2022-08-28T00:25:00.739Z,90.83
2022-08-28T00:26:00.763Z,90.93
2022-08-28T00:27:00.720Z,90.83
2022-08-28T00:28:00.721Z,90.73
2022-08-28T00:29:00.711Z,90.93
2022-08-28T00:30:00.718Z,90.93
2022-08-28T00:31:00.709Z,90.93
2022-08-28T00:32:00.637Z,90.93
2022-08-28T00:33:00.621Z,91.03
2022-08-28T00:34:00.609Z,91.03
2022-08-28T00:35:00.638Z,91.13
2022-08-28T00:36:00.580Z,90.93
2022-08-28T00:37:00.616Z,91.13
2022-08-28T00:38:00.621Z,91.24
2022-08-28T00:39:00.571Z,91.24
2022-08-28T00:40:00.585Z,91.24
2022-08-28T00:41:00.526Z,91.13
2022-08-28T00:42:00.516Z,91.24
2022-08-28T00:43:00.541Z,91.24
2022-08-28T00:44:00.478Z,91.34
2022-08-28T00:45:00.477Z,91.44
2022-08-28T00:46:00.508Z,91.44
2022-08-28T00:47:00.478Z,91.54
2022-08-28T00:48:00.427Z,91.44
2022-08-28T00:49:00.416Z,91.34
2022-08-28T00:50:00.419Z,91.44
2022-08-28T00:51:00.890Z,91.64
2022-08-28T00:52:00.367Z,91.54
2022-08-28T00:53:00.377Z,91.64
2022-08-28T00:54:02.192Z,91.74
2022-08-28T00:55:01.351Z,91.64
2022-08-28T00:56:00.320Z,91.78
2022-08-28T00:57:00.307Z,91.89
2022-08-28T00:58:00.299Z,91.89
2022-08-28T00:59:00.276Z,92.09
2022-08-28T01:00:00.266Z,92.09
2022-08-28T01:01:00.266Z,92.19
2022-08-28T01:02:00.274Z,92.19
2022-08-28T01:03:00.258Z,92.29
2022-08-28T01:04:00.206Z,92.29
2022-08-28T01:05:00.217Z,92.29
2022-08-28T01:06:00.208Z,92.29
2022-08-28T01:07:00.177Z,92.29
2022-08-28T01:08:00.158Z,92.40
2022-08-28T01:09:00.149Z,92.40
2022-08-28T01:10:00.158Z,92.40
2022-08-28T01:11:00.131Z,92.40
2022-08-28T01:12:00.108Z,92.40
2022-08-28T01:13:00.103Z,92.49
2022-08-28T01:14:00.687Z,92.60
2022-08-28T01:15:00.228Z,92.70
2022-08-28T01:16:00.127Z,92.70
2022-08-28T01:17:00.045Z,92.90
2022-08-28T01:18:02.580Z,92.80
2022-08-28T01:19:00.016Z,92.90
2022-08-28T01:19:59.997Z,93.10
2022-08-28T01:21:00.004Z,93.05
2022-08-28T01:21:59.984Z,93.25
2022-08-28T01:22:59.969Z,93.25
2022-08-28T01:23:59.944Z,93.35
2022-08-28T01:24:59.935Z,93.35
2022-08-28T01:25:59.927Z,93.35
2022-08-28T01:26:59.907Z,93.45
2022-08-28T01:27:59.896Z,93.55
2022-08-28T01:28:59.894Z,93.65
2022-08-28T01:29:59.869Z,93.65
2022-08-28T01:30:59.913Z,93.86
2022-08-28T01:31:59.835Z,93.86
2022-08-28T01:32:59.827Z,93.76
2022-08-28T01:33:59.805Z,93.86
2022-08-28T01:34:59.816Z,93.96
2022-08-28T01:35:59.804Z,93.96
2022-08-28T01:36:59.783Z,94.17
2022-08-28T01:37:59.763Z,94.17
2022-08-28T01:38:59.755Z,94.17
2022-08-28T01:39:59.806Z,94.17
2022-08-28T01:40:59.748Z,94.41
2022-08-28T01:41:59.727Z,94.41
2022-08-28T01:42:59.700Z,94.71
2022-08-28T01:43:59.684Z,94.71
2022-08-28T01:44:59.676Z,94.61
2022-08-28T01:45:59.736Z,94.61
2022-08-28T01:46:59.655Z,94.51
2022-08-28T01:47:59.624Z,94.41
2022-08-28T01:48:59.626Z,94.61
2022-08-28T01:49:59.616Z,94.92
2022-08-28T01:50:59.604Z,95.02
2022-08-28T01:51:59.584Z,95.02
2022-08-28T01:52:59.565Z,94.92
2022-08-28T01:53:59.545Z,94.92
2022-08-28T01:54:59.543Z,94.92
2022-08-28T01:55:59.545Z,95.02
2022-08-28T01:56:59.515Z,95.02
2022-08-28T01:57:59.494Z,95.02
2022-08-28T01:58:59.485Z,95.02
2022-08-28T01:59:59.471Z,94.92
2022-08-28T02:00:59.474Z,95.02
2022-08-28T02:01:59.485Z,95.02
2022-08-28T02:02:59.433Z,94.92
2022-08-28T02:03:59.436Z,95.02
2022-08-28T02:04:59.403Z,95.02
2022-08-28T02:05:59.404Z,95.02
2022-08-28T02:06:59.382Z,95.02
2022-08-28T02:07:59.364Z,95.02
2022-08-28T02:08:59.357Z,95.22
2022-08-28T02:09:59.334Z,95.42
2022-08-28T02:10:59.333Z,95.42
2022-08-28T02:11:59.322Z,95.42
2022-08-28T02:12:59.439Z,95.32
2022-08-28T02:13:59.285Z,95.42
2022-08-28T02:14:59.272Z,95.42
2022-08-28T02:15:59.304Z,95.73
2022-08-28T02:16:59.243Z,95.87
2022-08-28T02:17:59.253Z,95.98
2022-08-28T02:18:59.214Z,96.08
2022-08-28T02:19:59.213Z,96.28
2022-08-28T02:22:06.886Z,96.18
2022-08-28T02:22:59.167Z,96.28
2022-08-28T02:23:59.156Z,96.38
2022-08-28T02:24:59.142Z,96.38
2022-08-28T02:25:59.143Z,96.38
2022-08-28T02:26:59.115Z,96.38
2022-08-28T02:27:59.103Z,96.69
2022-08-28T02:28:59.085Z,96.69
2022-08-28T02:29:59.103Z,96.69
2022-08-28T02:30:59.114Z,96.59
2022-08-28T02:31:59.053Z,96.59
2022-08-28T02:32:59.035Z,96.63
2022-08-28T02:33:59.023Z,96.83
2022-08-28T02:34:59.176Z,96.83
2022-08-28T02:35:59.013Z,96.94
2022-08-28T02:36:58.992Z,97.04
2022-08-28T02:38:00.404Z,97.24
2022-08-28T02:38:58.956Z,97.55
2022-08-28T02:39:58.988Z,97.55
2022-08-28T02:40:58.942Z,97.65
2022-08-28T02:41:58.922Z,97.55
2022-08-28T02:42:58.903Z,97.44
2022-08-28T02:43:58.893Z,97.55
2022-08-28T02:44:58.882Z,97.40
2022-08-28T02:45:58.953Z,97.40
2022-08-28T02:46:58.853Z,97.30
2022-08-28T02:47:58.840Z,97.30
2022-08-28T02:48:58.822Z,97.20
2022-08-28T02:49:58.833Z,97.20
2022-08-28T02:50:58.812Z,97.20
2022-08-28T02:51:58.783Z,97.30
2022-08-28T02:52:58.772Z,97.40
2022-08-28T02:53:58.762Z,97.20
2022-08-28T02:54:58.754Z,97.20
2022-08-28T02:55:58.754Z,97.09
2022-08-28T02:56:58.721Z,97.09
2022-08-28T02:57:58.710Z,96.99
2022-08-28T02:58:58.691Z,96.84
2022-08-28T02:59:58.683Z,96.64
2022-08-28T03:00:59.199Z,96.54
2022-08-28T03:01:58.661Z,96.54
2022-08-28T03:02:58.703Z,96.54
2022-08-28T03:03:58.630Z,96.44
2022-08-28T03:04:58.621Z,96.48
2022-08-28T03:05:58.621Z,96.69
2022-08-28T03:06:58.591Z,96.69
2022-08-28T03:07:58.572Z,96.79
2022-08-28T03:08:58.561Z,96.79
2022-08-28T03:09:58.550Z,96.79
2022-08-28T03:10:58.558Z,96.79
2022-08-28T03:11:58.521Z,96.79
2022-08-28T03:12:58.502Z,96.89
2022-08-28T03:13:58.501Z,97.09
2022-08-28T03:14:58.481Z,97.30
2022-08-28T03:15:58.490Z,97.20
2022-08-28T03:16:58.489Z,97.40
2022-08-28T03:17:58.441Z,97.50
2022-08-28T03:18:58.430Z,97.60
2022-08-28T03:19:58.420Z,97.50
2022-08-28T03:20:58.409Z,97.40
2022-08-28T03:21:58.390Z,97.30
2022-08-28T03:22:58.371Z,97.40
2022-08-28T03:23:58.368Z,97.30
2022-08-28T03:24:58.348Z,97.30
2022-08-28T03:25:58.350Z,97.20
2022-08-28T03:26:58.330Z,97.30
2022-08-28T03:27:58.310Z,97.15
2022-08-28T03:28:59.712Z,97.05
2022-08-28T03:29:58.321Z,97.05
2022-08-28T03:30:58.335Z,97.05
2022-08-28T03:31:58.269Z,96.95
2022-08-28T03:32:58.239Z,96.75
2022-08-28T03:33:58.240Z,96.75
2022-08-28T03:34:58.219Z,96.64
2022-08-28T03:35:58.209Z,96.54
2022-08-28T03:36:58.199Z,96.54
2022-08-28T03:37:58.179Z,96.64
2022-08-28T03:38:58.160Z,96.64
2022-08-28T03:39:58.181Z,96.54
2022-08-28T03:40:58.130Z,96.44
2022-08-28T03:41:58.149Z,96.64
2022-08-28T03:42:58.109Z,96.64
2022-08-28T03:43:58.099Z,96.54
2022-08-28T03:44:58.079Z,96.54
2022-08-28T03:45:58.225Z,96.64
2022-08-28T03:46:58.069Z,96.44
2022-08-28T03:47:58.049Z,96.44
2022-08-28T03:48:58.028Z,96.44
2022-08-28T03:49:58.019Z,96.54
2022-08-28T03:50:58.006Z,96.75
2022-08-28T03:51:58.018Z,96.64
2022-08-28T03:52:57.978Z,96.64
2022-08-28T03:53:57.969Z,96.64
2022-08-28T03:54:57.949Z,96.64
2022-08-28T03:55:57.973Z,96.54
2022-08-28T03:56:57.928Z,96.54
2022-08-28T03:57:57.919Z,96.54
2022-08-28T03:58:57.898Z,96.54
2022-08-28T03:59:57.889Z,96.54
2022-08-28T04:00:57.952Z,96.54
2022-08-28T04:01:57.868Z,96.64
2022-08-28T04:02:57.883Z,96.75
2022-08-28T04:03:57.836Z,96.64
2022-08-28T04:04:57.819Z,96.64
2022-08-28T04:05:57.827Z,96.64
2022-08-28T04:06:57.788Z,96.64
2022-08-28T04:07:57.786Z,96.64
2022-08-28T04:08:59.971Z,96.84
2022-08-28T04:09:57.771Z,96.75
2022-08-28T04:10:57.757Z,96.84
2022-08-28T04:11:57.759Z,96.84
2022-08-28T04:12:57.717Z,96.95
2022-08-28T04:13:57.709Z,96.95
2022-08-28T04:14:57.687Z,96.84
2022-08-28T04:15:57.698Z,96.95
2022-08-28T04:17:01.407Z,96.95
2022-08-28T04:17:57.656Z,96.75
2022-08-28T04:18:57.637Z,96.89
2022-08-28T04:19:57.627Z,96.99
2022-08-28T04:20:57.628Z,97.20
2022-08-28T04:21:57.607Z,97.30
2022-08-28T04:22:57.586Z,97.30
2022-08-28T04:23:57.577Z,97.20
2022-08-28T04:24:57.557Z,97.30
2022-08-28T04:25:57.569Z,97.50
2022-08-28T04:26:57.539Z,97.40
2022-08-28T04:27:57.528Z,97.50
2022-08-28T04:28:57.507Z,97.50
2022-08-28T04:29:57.507Z,97.50
2022-08-28T04:30:57.524Z,97.60
2022-08-28T04:31:57.546Z,97.71
2022-08-28T04:32:57.448Z,97.80
2022-08-28T04:33:57.446Z,97.80
2022-08-28T04:34:57.425Z,97.80
2022-08-28T04:35:57.441Z,97.85
2022-08-28T04:36:57.396Z,97.96
2022-08-28T04:37:58.939Z,97.96
2022-08-28T04:38:57.368Z,97.75
2022-08-28T04:39:57.382Z,97.75
2022-08-28T04:40:57.363Z,97.85
2022-08-28T04:41:57.337Z,97.96
2022-08-28T04:42:57.316Z,97.96
2022-08-28T04:43:57.313Z,97.96
2022-08-28T04:44:57.286Z,98.16
2022-08-28T04:45:57.381Z,98.05
2022-08-28T04:46:57.256Z,98.05
2022-08-28T04:47:57.254Z,97.96
2022-08-28T04:48:57.235Z,97.85
2022-08-28T04:49:57.225Z,97.96
2022-08-28T04:50:57.225Z,98.05
2022-08-28T04:51:57.196Z,98.05
2022-08-28T04:52:57.185Z,97.91
2022-08-28T04:53:57.185Z,97.91
2022-08-28T04:54:57.154Z,97.80
2022-08-28T04:55:57.173Z,97.80
2022-08-28T04:56:57.125Z,97.60
2022-08-28T04:57:57.126Z,97.50
2022-08-28T04:58:57.104Z,97.40
2022-08-28T04:59:57.097Z,97.50
2022-08-28T05:00:57.129Z,97.40
2022-08-28T05:01:57.125Z,97.30
2022-08-28T05:02:57.044Z,97.30
2022-08-28T05:03:57.045Z,97.30
2022-08-28T05:04:57.024Z,97.20
2022-08-28T05:05:57.034Z,97.20
2022-08-28T05:06:56.994Z,97.05
2022-08-28T05:07:56.993Z,97.05
2022-08-28T05:08:56.973Z,97.05
2022-08-28T05:09:56.964Z,97.05
2022-08-28T05:10:56.972Z,96.95
2022-08-28T05:11:56.965Z,97.05
2022-08-28T05:12:56.914Z,96.95
2022-08-28T05:13:56.916Z,96.84
2022-08-28T05:14:56.894Z,96.84
2022-08-28T05:15:56.924Z,96.84
2022-08-28T05:16:56.864Z,96.75
2022-08-28T05:17:56.854Z,96.64
2022-08-28T05:18:56.834Z,96.54
2022-08-28T05:19:56.833Z,96.54
2022-08-28T05:20:56.987Z,96.44
2022-08-28T05:21:56.802Z,96.30
2022-08-28T05:22:56.784Z,96.09
2022-08-28T05:23:56.775Z,95.99
2022-08-28T05:24:56.763Z,95.79
2022-08-28T05:25:56.779Z,95.58
2022-08-28T05:26:56.744Z,95.48
2022-08-28T05:27:56.722Z,95.34
2022-08-28T05:28:56.702Z,95.13
2022-08-28T05:30:01.227Z,94.83
2022-08-28T05:30:57.693Z,94.38
2022-08-28T05:31:56.726Z,94.18
2022-08-28T05:32:56.652Z,94.07
2022-08-28T05:33:56.643Z,93.67
2022-08-28T05:34:56.623Z,93.57
2022-08-28T05:35:56.632Z,93.22
2022-08-28T05:36:56.593Z,92.91
2022-08-28T05:37:56.582Z,92.91
2022-08-28T05:38:56.562Z,92.71
2022-08-28T05:39:56.618Z,92.47
2022-08-28T05:40:56.561Z,92.47
2022-08-28T05:41:56.571Z,92.36
2022-08-28T05:42:56.513Z,91.96
2022-08-28T05:43:56.502Z,91.61
2022-08-28T05:44:56.511Z,91.41
2022-08-28T05:45:56.554Z,91.11
2022-08-28T05:46:56.462Z,90.80
2022-08-28T05:47:56.452Z,90.96
2022-08-28T05:48:56.431Z,90.66
2022-08-28T05:49:56.441Z,90.36
2022-08-28T05:50:56.431Z,89.91
2022-08-28T05:51:56.401Z,89.61
2022-08-28T05:52:56.382Z,89.10
2022-08-28T05:53:56.372Z,88.75
2022-08-28T05:54:56.371Z,88.45
2022-08-28T05:55:56.364Z,87.70
2022-08-28T05:56:56.331Z,87.60
2022-08-28T05:57:56.321Z,87.50
2022-08-28T05:58:56.316Z,87.81
2022-08-28T05:59:56.293Z,87.60
2022-08-28T06:00:56.292Z,87.30
2022-08-28T06:01:58.890Z,87.30
2022-08-28T06:02:56.250Z,86.90
2022-08-28T06:03:56.287Z,86.99
2022-08-28T06:04:56.221Z,87.10
2022-08-28T06:05:56.251Z,86.85
2022-08-28T06:06:56.191Z,86.95
2022-08-28T06:07:56.213Z,86.65
2022-08-28T06:08:58.991Z,86.55
2022-08-28T06:09:56.161Z,86.35
2022-08-28T06:10:56.164Z,86.35
2022-08-28T06:11:56.142Z,86.00
2022-08-28T06:12:56.113Z,85.64
2022-08-28T06:13:56.111Z,85.90
2022-08-28T06:14:56.100Z,85.70
2022-08-28T06:15:56.152Z,85.84
2022-08-28T06:16:56.086Z,85.64
2022-08-28T06:17:56.073Z,85.94
2022-08-28T06:18:56.031Z,85.70
2022-08-28T06:19:56.022Z,85.90
2022-08-28T06:20:56.022Z,85.50
2022-08-28T06:21:56.001Z,85.30
2022-08-28T06:22:55.993Z,85.19
2022-08-28T06:23:55.990Z,84.95
2022-08-28T06:24:55.963Z,84.35
2022-08-28T06:25:55.952Z,84.45
2022-08-28T06:26:58.157Z,84.55
2022-08-28T06:27:55.912Z,84.65
2022-08-28T06:28:55.916Z,84.05
2022-08-28T06:29:55.992Z,84.05
2022-08-28T06:31:18.376Z,84.05
2022-08-28T06:31:56.926Z,84.05
2022-08-28T06:32:55.852Z,83.91
2022-08-28T06:33:55.833Z,83.60
2022-08-28T06:34:55.830Z,83.80
2022-08-28T06:35:55.820Z,83.46
2022-08-28T06:36:55.800Z,83.06
2022-08-28T06:37:55.783Z,82.35
2022-08-28T06:38:55.813Z,82.35
2022-08-28T06:39:55.790Z,82.15
2022-08-28T06:40:55.762Z,81.65
2022-08-28T06:41:55.722Z,81.99
2022-08-28T06:42:56.521Z,82.05
2022-08-28T06:43:55.701Z,81.95
2022-08-28T06:44:55.701Z,82.35
2022-08-28T06:45:55.760Z,81.91
2022-08-28T06:46:55.668Z,81.21
2022-08-28T06:47:55.652Z,80.44
2022-08-28T06:48:55.642Z,80.84
2022-08-28T06:49:55.632Z,81.35
2022-08-28T06:50:55.621Z,81.24
2022-08-28T06:51:55.602Z,81.45
2022-08-28T06:52:55.592Z,81.15
2022-08-28T06:53:55.825Z,81.35
2022-08-28T06:54:56.059Z,81.04
2022-08-28T06:55:55.546Z,80.94
2022-08-28T06:56:55.552Z,80.64
2022-08-28T06:57:55.540Z,81.21
2022-08-28T06:58:55.503Z,80.80
2022-08-28T06:59:55.743Z,80.80
2022-08-28T07:01:02.239Z,80.50
2022-08-28T07:01:56.640Z,80.40
2022-08-28T07:02:55.495Z,80.80
2022-08-28T07:03:55.434Z,80.90
2022-08-28T07:04:55.431Z,80.80
2022-08-28T07:05:55.437Z,81.04
2022-08-28T07:06:55.412Z,81.21
2022-08-28T07:07:55.383Z,80.50
2022-08-28T07:08:55.371Z,80.50
2022-08-28T07:09:55.352Z,80.60
2022-08-28T07:10:55.363Z,80.57
2022-08-28T07:11:55.341Z,80.97
2022-08-28T07:12:55.312Z,80.16
2022-08-28T07:13:55.301Z,79.56
2022-08-28T07:14:55.294Z,78.96
2022-08-28T07:15:55.308Z,79.76
2022-08-28T07:16:55.282Z,79.42
2022-08-28T07:17:55.243Z,79.25
2022-08-28T07:18:55.248Z,78.65
2022-08-28T07:19:55.221Z,78.15
2022-08-28T07:20:55.211Z,78.65
2022-08-28T07:21:55.205Z,78.55
2022-08-28T07:22:59.522Z,78.81
2022-08-28T07:23:55.171Z,78.71
2022-08-28T07:24:55.161Z,78.11
2022-08-28T07:25:55.142Z,78.31
2022-08-28T07:26:55.151Z,78.38
2022-08-28T07:27:55.122Z,77.91
2022-08-28T07:29:09.329Z,78.07
2022-08-28T07:29:56.087Z,77.67
2022-08-28T07:30:55.129Z,77.17
2022-08-28T07:31:55.081Z,77.07
2022-08-28T07:32:55.062Z,77.47
2022-08-28T07:33:55.043Z,77.87
2022-08-28T07:34:55.052Z,76.67
2022-08-28T07:35:55.013Z,77.33
2022-08-28T07:36:55.019Z,76.83
2022-08-28T07:37:54.993Z,77.13
2022-08-28T07:38:54.983Z,77.43
2022-08-28T07:39:55.023Z,76.83
2022-08-28T07:40:54.955Z,76.69
2022-08-28T07:41:54.981Z,76.59
2022-08-28T07:42:54.923Z,76.79
2022-08-28T07:43:54.916Z,76.29
2022-08-28T07:44:54.903Z,76.29
2022-08-28T07:45:54.899Z,76.23
2022-08-28T07:46:54.884Z,76.32
2022-08-28T07:47:54.856Z,76.32
2022-08-28T07:48:54.851Z,75.99
2022-08-28T07:49:54.826Z,75.68
2022-08-28T07:50:54.823Z,75.42
2022-08-28T07:51:54.813Z,75.82
2022-08-28T07:52:54.796Z,76.53
2022-08-28T07:53:54.783Z,76.12
2022-08-28T07:54:54.772Z,75.49
2022-08-28T07:55:54.742Z,75.59
2022-08-28T07:56:54.755Z,74.48
2022-08-28T07:57:54.801Z,74.68
2022-08-28T07:58:54.720Z,75.09
2022-08-28T07:59:54.703Z,75.09
2022-08-28T08:00:54.684Z,73.51
2022-08-28T08:01:54.711Z,73.31
2022-08-28T08:02:54.703Z,73.81
2022-08-28T08:03:55.972Z,75.12
2022-08-28T08:04:55.633Z,75.02
2022-08-28T08:05:54.964Z,75.22
2022-08-28T08:06:57.979Z,75.09
2022-08-28T08:07:54.592Z,75.09
2022-08-28T08:08:54.575Z,74.28
2022-08-28T08:09:54.554Z,74.38
2022-08-28T08:10:54.544Z,73.91
2022-08-28T08:11:54.561Z,74.21
2022-08-28T08:12:54.530Z,74.11
2022-08-28T08:13:54.504Z,73.38
2022-08-28T08:14:54.495Z,72.67
2022-08-28T08:15:54.537Z,73.11
2022-08-28T08:16:54.505Z,72.41
2022-08-28T08:17:54.452Z,73.61
2022-08-28T08:18:54.450Z,72.91
2022-08-28T08:19:54.424Z,72.41
2022-08-28T08:20:54.422Z,73.00
2022-08-28T08:21:55.302Z,73.04
2022-08-28T08:22:54.396Z,73.44
2022-08-28T08:23:54.375Z,73.55
2022-08-28T08:24:54.364Z,74.85
2022-08-28T08:25:54.344Z,75.02
2022-08-28T08:26:59.993Z,74.21
2022-08-28T08:27:55.324Z,73.61
2022-08-28T08:28:54.314Z,74.32
2022-08-28T08:29:54.295Z,74.82
2022-08-28T08:30:54.326Z,74.82
2022-08-28T08:31:54.283Z,75.49
2022-08-28T08:32:54.263Z,75.09
2022-08-28T08:33:54.244Z,74.98
2022-08-28T08:34:54.232Z,75.09
2022-08-28T08:35:54.215Z,75.42
2022-08-28T08:36:54.215Z,75.32
2022-08-28T08:37:54.184Z,75.32
2022-08-28T08:38:59.540Z,74.28
2022-08-28T08:39:55.202Z,73.78
2022-08-28T08:40:54.154Z,72.17
2022-08-28T08:41:54.144Z,71.43
2022-08-28T08:42:54.132Z,70.53
2022-08-28T08:43:54.107Z,69.02
2022-08-28T08:44:54.104Z,70.63
2022-08-28T08:45:54.114Z,70.83
2022-08-28T08:46:54.084Z,71.13
2022-08-28T08:47:54.094Z,71.13
2022-08-28T08:48:54.054Z,70.93
2022-08-28T08:49:54.026Z,69.32
2022-08-28T08:50:54.025Z,68.82
2022-08-28T08:51:54.016Z,68.52
2022-08-28T08:52:54.010Z,69.72
2022-08-28T08:53:53.976Z,70.63
2022-08-28T08:54:58.838Z,70.70
2022-08-28T08:55:54.950Z,67.68
2022-08-28T08:56:53.955Z,68.72
2022-08-28T08:57:53.926Z,69.62
2022-08-28T08:58:53.923Z,70.73
2022-08-28T08:59:53.895Z,70.83
2022-08-28T09:00:53.886Z,70.53
2022-08-28T09:01:53.922Z,70.63
2022-08-28T09:02:53.868Z,70.12
2022-08-28T09:03:54.014Z,68.72
2022-08-28T09:04:53.838Z,68.41
2022-08-28T09:05:53.817Z,67.78
2022-08-28T09:06:53.816Z,67.38
2022-08-28T09:07:53.795Z,67.25
2022-08-28T09:08:53.776Z,67.08
2022-08-28T09:09:53.764Z,66.95
2022-08-28T09:10:53.746Z,66.75
2022-08-28T09:11:56.418Z,67.22
2022-08-28T09:12:53.726Z,66.75
2022-08-28T09:13:53.715Z,67.14
2022-08-28T09:14:53.697Z,67.32
2022-08-28T09:15:53.711Z,67.42
2022-08-28T09:16:53.716Z,66.48
2022-08-28T09:17:53.655Z,67.38
2022-08-28T09:18:53.655Z,66.65
2022-08-28T09:19:53.636Z,65.58
2022-08-28T09:20:53.621Z,66.18
2022-08-28T09:21:53.651Z,66.14
2022-08-28T09:22:53.597Z,66.95
2022-08-28T09:23:53.579Z,67.58
2022-08-28T09:24:53.569Z,67.75
2022-08-28T09:25:53.546Z,67.25
2022-08-28T09:26:53.557Z,66.68
2022-08-28T09:27:53.524Z,65.98
2022-08-28T09:28:53.517Z,65.88
2022-08-28T09:29:53.505Z,65.95
2022-08-28T09:30:53.604Z,66.25
2022-08-28T09:31:53.486Z,65.92
2022-08-28T09:32:53.457Z,65.22
2022-08-28T09:33:53.437Z,65.75
2022-08-28T09:34:53.437Z,65.98
2022-08-28T09:35:53.428Z,66.11
2022-08-28T09:36:53.426Z,67.65
2022-08-28T09:37:53.397Z,67.05
2022-08-28T09:38:53.388Z,67.32
2022-08-28T09:39:53.438Z,66.08
2022-08-28T09:40:53.375Z,65.15
2022-08-28T09:41:53.328Z,63.71
2022-08-28T09:42:53.328Z,63.89
2022-08-28T09:44:00.840Z,63.56
2022-08-28T09:44:53.308Z,63.72
2022-08-28T09:45:53.352Z,65.09
2022-08-28T09:46:53.280Z,61.26
2022-08-28T09:47:53.261Z,62.59
2022-08-28T09:48:53.260Z,62.52
2022-08-28T09:49:53.328Z,61.79
2022-08-28T09:50:53.222Z,61.49
2022-08-28T09:51:53.225Z,62.16
2022-08-28T09:52:53.192Z,61.69
2022-08-28T09:53:53.184Z,61.49
2022-08-28T09:54:53.171Z,62.26
2022-08-28T09:55:53.163Z,60.86
2022-08-28T09:56:53.164Z,60.29
2022-08-28T09:57:53.121Z,60.99
2022-08-28T09:58:53.125Z,62.19
2022-08-28T09:59:53.099Z,61.32
2022-08-28T10:00:53.090Z,61.42
2022-08-28T10:01:53.141Z,61.79
2022-08-28T10:02:53.141Z,61.29
2022-08-28T10:03:53.075Z,61.29
2022-08-28T10:04:53.043Z,61.57
2022-08-28T10:05:53.022Z,61.26
2022-08-28T10:06:53.039Z,60.24
2022-08-28T10:07:52.993Z,60.77
2022-08-28T10:08:52.996Z,60.96
2022-08-28T10:09:53.082Z,61.16
2022-08-28T10:10:52.960Z,60.79
2022-08-28T10:11:52.960Z,62.42
2022-08-28T10:12:52.946Z,63.22
2022-08-28T10:13:52.913Z,62.52
2022-08-28T10:14:52.913Z,62.72
2022-08-28T10:15:53.021Z,62.92
2022-08-28T10:16:52.884Z,63.32
2022-08-28T10:17:52.853Z,62.62
2022-08-28T10:18:52.843Z,62.92
2022-08-28T10:19:52.833Z,62.09
2022-08-28T10:20:52.822Z,61.59
2022-08-28T10:21:52.823Z,61.26
2022-08-28T10:22:52.794Z,60.79
2022-08-28T10:23:52.792Z,61.22
2022-08-28T10:24:52.774Z,60.32
2022-08-28T10:25:52.753Z,60.10
2022-08-28T10:26:52.753Z,59.30
2022-08-28T10:27:52.733Z,59.39
2022-08-28T10:28:52.713Z,59.97
2022-08-28T10:29:52.725Z,59.36
2022-08-28T10:30:52.724Z,59.77
2022-08-28T10:31:52.694Z,59.56
2022-08-28T10:32:52.746Z,59.56
2022-08-28T10:33:52.665Z,59.44
2022-08-28T10:34:52.634Z,59.83
2022-08-28T10:35:52.624Z,59.61
2022-08-28T10:36:52.723Z,58.98
2022-08-28T10:37:52.676Z,57.68
2022-08-28T10:38:53.040Z,57.48
2022-08-28T10:39:52.605Z,58.36
2022-08-28T10:40:52.546Z,57.46
2022-08-28T10:41:52.564Z,57.65
2022-08-28T10:42:52.536Z,57.65
2022-08-28T10:43:52.527Z,58.25
2022-08-28T10:44:52.566Z,58.12
2022-08-28T10:45:52.538Z,57.40
2022-08-28T10:46:52.484Z,57.64
2022-08-28T10:47:52.465Z,56.35
2022-08-28T10:48:52.455Z,56.02
2022-08-28T10:49:52.466Z,54.96
2022-08-28T10:50:52.427Z,55.18
2022-08-28T10:51:52.427Z,54.68
2022-08-28T10:52:52.398Z,54.61
2022-08-28T10:53:52.396Z,55.04
2022-08-28T10:54:52.406Z,55.36
2022-08-28T10:55:52.365Z,57.26
2022-08-28T10:56:56.175Z,56.13
2022-08-28T10:57:52.344Z,54.94
2022-08-28T10:58:52.324Z,55.04
2022-08-28T10:59:52.316Z,54.83
2022-08-28T11:00:52.296Z,55.54
2022-08-28T11:01:52.638Z,54.64
2022-08-28T11:02:52.325Z,55.24
2022-08-28T11:03:52.267Z,55.24
2022-08-28T11:04:56.470Z,55.91
2022-08-28T11:05:53.889Z,54.81
2022-08-28T11:06:52.237Z,54.41
2022-08-28T11:07:52.208Z,55.80
2022-08-28T11:08:52.230Z,55.13
2022-08-28T11:09:52.217Z,55.04
2022-08-28T11:10:52.167Z,55.16
2022-08-28T11:11:52.176Z,56.66
2022-08-28T11:12:52.158Z,56.60
2022-08-28T11:13:52.137Z,54.51
2022-08-28T11:14:52.118Z,55.31
2022-08-28T11:15:52.112Z,56.01
2022-08-28T11:16:52.155Z,54.38
2022-08-28T11:17:52.130Z,54.19
2022-08-28T11:18:52.069Z,54.98
2022-08-28T11:19:52.600Z,54.46
2022-08-28T11:20:52.040Z,53.64
2022-08-28T11:21:52.050Z,55.73
2022-08-28T11:22:52.026Z,53.04
2022-08-28T11:23:52.008Z,53.14
2022-08-28T11:24:51.991Z,53.24
2022-08-28T11:25:52.033Z,53.44
2022-08-28T11:26:51.979Z,53.64
2022-08-28T11:27:51.959Z,53.44
2022-08-28T11:28:51.942Z,53.53
2022-08-28T11:29:51.974Z,54.24
2022-08-28T11:30:51.945Z,52.64
2022-08-28T11:31:51.931Z,54.33
2022-08-28T11:32:51.902Z,54.33
2022-08-28T11:33:51.881Z,54.41
2022-08-28T11:34:52.025Z,53.51
2022-08-28T11:35:51.863Z,53.34
2022-08-28T11:36:51.851Z,53.74
2022-08-28T11:37:51.847Z,53.24
2022-08-28T11:38:51.818Z,54.13
2022-08-28T11:39:51.808Z,53.53
2022-08-28T11:40:51.801Z,53.04
2022-08-28T11:41:51.791Z,53.36
2022-08-28T11:42:51.761Z,53.36
2022-08-28T11:43:51.752Z,53.96
2022-08-28T11:44:51.754Z,55.33
2022-08-28T11:45:51.782Z,52.91
2022-08-28T11:46:51.721Z,52.81
2022-08-28T11:47:51.707Z,52.79
2022-08-28T11:48:51.681Z,52.64
2022-08-28T11:49:51.679Z,52.57
2022-08-28T11:50:51.654Z,52.64
2022-08-28T11:51:51.661Z,52.34
2022-08-28T11:52:51.660Z,53.34
2022-08-28T11:53:51.622Z,52.72
2022-08-28T11:54:51.622Z,50.82
2022-08-28T11:55:51.601Z,52.39
2022-08-28T11:56:51.593Z,51.10
2022-08-28T11:57:51.572Z,51.00
2022-08-28T11:58:51.552Z,50.80
2022-08-28T11:59:51.542Z,51.32
2022-08-28T12:00:51.523Z,51.92
2022-08-28T12:01:51.532Z,51.00
2022-08-28T12:02:51.553Z,51.42
2022-08-28T12:03:51.551Z,51.40
2022-08-28T12:04:51.503Z,51.20
2022-08-28T12:05:51.479Z,50.78
2022-08-28T12:06:51.464Z,51.10
2022-08-28T12:07:51.435Z,51.28
2022-08-28T12:08:51.415Z,51.82
2022-08-28T12:09:51.414Z,49.61
2022-08-28T12:10:51.404Z,48.52
2022-08-28T12:11:51.446Z,48.54
2022-08-28T12:12:51.365Z,50.45
2022-08-28T12:13:51.382Z,50.38
2022-08-28T12:14:51.342Z,49.58
2022-08-28T12:15:51.365Z,48.99
2022-08-28T12:16:51.344Z,50.58
2022-08-28T12:17:51.306Z,50.48
2022-08-28T12:18:51.293Z,49.78
2022-08-28T12:19:55.748Z,50.98
2022-08-28T12:20:51.278Z,50.35
2022-08-28T12:21:51.287Z,49.66
2022-08-28T12:22:51.235Z,50.26
2022-08-28T12:23:51.228Z,50.45
2022-08-28T12:24:51.227Z,50.28
2022-08-28T12:25:51.206Z,51.37
2022-08-28T12:26:51.195Z,51.37
2022-08-28T12:27:51.176Z,50.05
2022-08-28T12:28:51.156Z,48.96
2022-08-28T12:29:51.147Z,50.03
2022-08-28T12:30:51.261Z,49.34
2022-08-28T12:31:51.166Z,49.84
2022-08-28T12:32:51.108Z,49.36
2022-08-28T12:33:51.096Z,48.96
2022-08-28T12:34:51.076Z,50.03
2022-08-28T12:35:51.078Z,50.85
2022-08-28T12:36:52.162Z,52.89
2022-08-28T12:37:53.267Z,50.38
2022-08-28T12:38:51.029Z,49.44
2022-08-28T12:39:51.074Z,49.32
2022-08-28T12:40:50.993Z,47.50
2022-08-28T12:41:51.028Z,47.41
2022-08-28T12:42:54.541Z,49.17
2022-08-28T12:43:50.967Z,46.57
2022-08-28T12:44:50.947Z,46.39
2022-08-28T12:45:51.047Z,47.31
2022-08-28T12:46:50.938Z,46.31
2022-08-28T12:47:50.952Z,47.11
2022-08-28T12:48:50.969Z,47.03
2022-08-28T12:49:50.889Z,48.32
2022-08-28T12:50:50.881Z,47.71
2022-08-28T12:51:50.860Z,47.09
2022-08-28T12:52:50.840Z,47.21